createdAt,value
2017-10-30T00:01:01.201Z,95694.67
2017-10-30T00:02:38.328Z,95664.87
2017-10-30T00:04:15.618Z,95646.86
2017-10-30T00:05:53.385Z,95667.59
2017-10-30T00:07:30.173Z,95677.01
2017-10-30T00:09:07.161Z,95710.76
2017-10-30T00:10:44.438Z,95717.59
2017-10-30T00:12:21.417Z,95705.03
2017-10-30T00:13:58.542Z,95704.19
2017-10-30T00:15:35.256Z,95730.86
2017-10-30T00:17:12.313Z,95749.17
2017-10-30T00:18:49.115Z,95750.38
2017-10-30T00:20:25.463Z,95726.38
2017-10-30T00:22:01.937Z,95724.63
2017-10-30T00:23:39.170Z,95748.75
2017-10-30T00:25:16.242Z,95763.78
2017-10-30T00:26:53.735Z,95774.27
2017-10-30T00:28:36.463Z,95755.62
2017-10-30T00:30:13.024Z,95801.78
2017-10-30T00:31:51.190Z,95854.15
2017-10-30T00:33:28.251Z,95899.59
2017-10-30T00:35:05.011Z,95945.84
2017-10-30T00:36:42.202Z,95967.09
2017-10-30T00:38:19.488Z,95969.27
2017-10-30T00:39:55.903Z,95976.14
2017-10-30T00:41:32.715Z,95978.44
2017-10-30T00:43:09.278Z,95965.34
2017-10-30T00:44:46.362Z,95961.45
2017-10-30T00:46:24.250Z,95986.64
2017-10-30T00:48:01.046Z,95992.16
2017-10-30T00:49:38.960Z,96009.17
2017-10-30T00:51:16.718Z,96021.26
2017-10-30T00:52:53.631Z,95996.02
2017-10-30T00:54:30.860Z,95948.97
2017-10-30T00:56:07.380Z,95947.70
2017-10-30T00:57:44.555Z,95972.70
2017-10-30T00:59:22.203Z,95967.19
2017-10-30T01:00:59.391Z,95937.37
2017-10-30T01:02:36.033Z,95904.36
2017-10-30T01:04:13.710Z,95900.17
2017-10-30T01:05:51.202Z,95870.73
2017-10-30T01:07:29.128Z,95870.73
2017-10-30T01:09:07.227Z,95887.99
2017-10-30T01:10:44.303Z,95887.03
2017-10-30T01:12:22.111Z,95897.58
2017-10-30T01:13:59.536Z,95884.50
2017-10-30T01:15:36.207Z,95904.42
2017-10-30T01:17:15.288Z,95926.45
2017-10-30T01:18:52.223Z,95884.50
2017-10-30T01:20:30.542Z,95853.79
2017-10-30T01:23:55.767Z,95846.53
2017-10-30T01:25:36.759Z,95852.04
2017-10-30T01:27:23.695Z,95846.11
2017-10-30T01:29:10.758Z,95881.55
2017-10-30T01:30:48.432Z,95920.45
2017-10-30T01:32:31.073Z,95916.59
2017-10-30T01:34:07.695Z,95934.66
2017-10-30T01:35:45.004Z,95934.72
2017-10-30T01:37:23.125Z,95928.08
2017-10-30T01:39:00.450Z,95901.77
2017-10-30T01:40:39.551Z,95865.06
2017-10-30T01:43:59.713Z,95866.45
2017-10-30T01:45:36.546Z,95851.29
2017-10-30T01:47:13.934Z,95822.34
2017-10-30T01:48:51.399Z,95881.55
2017-10-30T01:50:27.790Z,95911.83
2017-10-30T01:52:04.246Z,95906.95
2017-10-30T01:53:40.829Z,95935.20
2017-10-30T01:55:18.810Z,95931.28
2017-10-30T01:56:55.707Z,95967.25
2017-10-30T01:58:33.891Z,95974.94
2017-10-30T02:00:12.657Z,95953.80
2017-10-30T02:01:50.397Z,95951.56
2017-10-30T02:03:26.923Z,95980.67
2017-10-30T02:05:04.228Z,95959.77
2017-10-30T02:06:41.419Z,95964.11
2017-10-30T02:08:20.069Z,95963.69
2017-10-30T02:09:56.884Z,95907.91
2017-10-30T02:11:33.883Z,95920.09
2017-10-30T02:13:11.533Z,95929.59
2017-10-30T02:14:48.822Z,95896.25
2017-10-30T02:16:26.463Z,95845.20
2017-10-30T02:18:03.053Z,95782.00
2017-10-30T02:19:39.994Z,95712.56
2017-10-30T02:21:17.078Z,95655.84
2017-10-30T02:22:53.978Z,95611.08
2017-10-30T02:24:31.095Z,95567.00
2017-10-30T02:26:19.308Z,95556.05
2017-10-30T02:27:58.483Z,95562.61
2017-10-30T02:29:36.093Z,95619.63
2017-10-30T02:31:13.311Z,95580.20
2017-10-30T02:32:50.131Z,95483.64
2017-10-30T02:34:28.181Z,95417.67
2017-10-30T02:36:05.193Z,95390.83
2017-10-30T02:37:41.682Z,95403.42
2017-10-30T02:39:27.630Z,95377.49
2017-10-30T02:41:05.426Z,95398.61
2017-10-30T02:42:42.132Z,95429.30
2017-10-30T02:44:18.794Z,95460.34
2017-10-30T02:45:57.312Z,95424.06
2017-10-30T02:47:34.800Z,95434.05
2017-10-30T02:49:11.388Z,95468.97
2017-10-30T02:50:48.161Z,95505.20
2017-10-30T02:52:25.237Z,95528.50
2017-10-30T02:54:02.857Z,95540.98
2017-10-30T02:55:39.430Z,95485.30
2017-10-30T02:57:17.713Z,95469.75
2017-10-30T02:58:55.640Z,95500.52
2017-10-30T03:00:33.593Z,95533.64
2017-10-30T03:02:10.339Z,95576.66
2017-10-30T03:03:49.347Z,95624.50
2017-10-30T03:05:26.642Z,95655.13
2017-10-30T03:07:03.711Z,95686.64
2017-10-30T03:08:40.570Z,95669.66
2017-10-30T03:10:17.082Z,95647.76
2017-10-30T03:11:54.829Z,95626.67
2017-10-30T03:13:31.387Z,95592.39
2017-10-30T03:15:07.918Z,95621.85
2017-10-30T03:16:44.658Z,95590.64
2017-10-30T03:18:22.079Z,95587.13
2017-10-30T03:19:58.876Z,95611.08
2017-10-30T03:21:36.555Z,95643.48
2017-10-30T03:23:14.177Z,95684.54
2017-10-30T03:24:51.448Z,95663.73
2017-10-30T03:26:28.569Z,95645.59
2017-10-30T03:28:05.232Z,95644.27
2017-10-30T03:29:42.153Z,95607.05
2017-10-30T03:31:19.842Z,95610.89
2017-10-30T03:32:57.895Z,95626.57
2017-10-30T03:34:34.325Z,95631.33
2017-10-30T03:36:11.623Z,95640.84
2017-10-30T03:37:48.652Z,95700.46
2017-10-30T03:39:25.173Z,95715.16
2017-10-30T03:41:01.817Z,95737.58
2017-10-30T03:42:38.218Z,95757.00
2017-10-30T03:44:14.742Z,95778.23
2017-10-30T03:45:52.074Z,95774.27
2017-10-30T03:47:28.721Z,95786.76
2017-10-30T03:49:05.099Z,95818.84
2017-10-30T03:50:41.537Z,95809.32
2017-10-30T03:52:18.770Z,95779.77
2017-10-30T03:53:55.506Z,95798.80
2017-10-30T03:55:32.271Z,95840.44
2017-10-30T03:57:08.934Z,95874.64
2017-10-30T03:58:46.600Z,95895.41
2017-10-30T04:00:28.374Z,95940.87
2017-10-30T04:02:05.952Z,95930.86
2017-10-30T04:03:43.198Z,95893.30
2017-10-30T04:05:21.198Z,95926.67
2017-10-30T04:08:35.312Z,95982.36
2017-10-30T04:10:13.104Z,95982.77
2017-10-30T04:11:50.054Z,95943.67
2017-10-30T04:13:26.749Z,95951.27
2017-10-30T04:15:03.426Z,95945.69
2017-10-30T04:16:40.051Z,95976.74
2017-10-30T04:18:16.904Z,95968.91
2017-10-30T04:19:53.427Z,95984.10
2017-10-30T04:21:30.635Z,95960.80
2017-10-30T04:23:07.299Z,95946.53
2017-10-30T04:24:43.920Z,95928.75
2017-10-30T04:26:21.162Z,95913.22
2017-10-30T04:27:57.995Z,95905.96
2017-10-30T04:29:35.445Z,95924.56
2017-10-30T04:31:12.090Z,95978.98
2017-10-30T04:32:49.189Z,96006.15
2017-10-30T04:34:25.897Z,96023.01
2017-10-30T04:36:02.477Z,95978.07
2017-10-30T04:37:38.938Z,96028.38
2017-10-30T04:39:15.689Z,96050.43
2017-10-30T04:40:52.407Z,96070.31
2017-10-30T04:42:28.794Z,96099.67
2017-10-30T04:44:05.224Z,96034.41
2017-10-30T04:45:41.998Z,95928.75
2017-10-30T04:47:18.391Z,95908.88
2017-10-30T04:48:54.933Z,95818.13
2017-10-30T04:50:32.651Z,95739.52
2017-10-30T04:52:09.019Z,95713.59
2017-10-30T04:53:45.787Z,95715.82
2017-10-30T04:55:22.705Z,95745.44
2017-10-30T04:57:00.212Z,95825.53
2017-10-30T04:58:37.390Z,95920.64
2017-10-30T05:00:30.329Z,95893.23
2017-10-30T05:02:07.286Z,95871.27
2017-10-30T05:03:44.968Z,95889.44
2017-10-30T05:05:22.394Z,95905.48
2017-10-30T05:06:59.003Z,95886.48
2017-10-30T05:08:36.727Z,95871.75
2017-10-30T05:10:13.861Z,95816.80
2017-10-30T05:11:50.303Z,95787.39
2017-10-30T05:13:27.604Z,95798.20
2017-10-30T05:15:04.850Z,95810.86
2017-10-30T05:16:41.818Z,95817.64
2017-10-30T05:18:18.472Z,95775.70
2017-10-30T05:19:55.646Z,95779.14
2017-10-30T05:21:32.120Z,95788.36
2017-10-30T05:23:08.490Z,95780.59
2017-10-30T05:24:45.013Z,95755.86
2017-10-30T05:26:21.394Z,95726.50
2017-10-30T05:27:59.181Z,95723.44
2017-10-30T05:29:35.893Z,95711.78
2017-10-30T05:31:12.720Z,95739.45
2017-10-30T05:32:49.111Z,95754.48
2017-10-30T05:34:26.423Z,95784.45
2017-10-30T05:36:03.397Z,95800.38
2017-10-30T05:37:40.649Z,95793.39
2017-10-30T05:39:17.363Z,95802.84
2017-10-30T05:40:54.706Z,95798.56
2017-10-30T05:42:32.534Z,95734.22
2017-10-30T05:44:08.952Z,95685.92
2017-10-30T05:45:45.634Z,95659.59
2017-10-30T05:47:22.065Z,95635.72
2017-10-30T05:50:41.916Z,95562.61
2017-10-30T05:52:19.097Z,95532.00
2017-10-30T05:53:57.625Z,95506.17
2017-10-30T05:55:35.663Z,95522.55
2017-10-30T05:57:11.990Z,95526.11
2017-10-30T05:58:48.388Z,95538.10
2017-10-30T06:00:27.102Z,95559.18
2017-10-30T06:02:04.018Z,95552.42
2017-10-30T06:03:40.874Z,95539.04
2017-10-30T06:05:18.218Z,95565.74
2017-10-30T06:06:54.779Z,95570.08
2017-10-30T06:08:32.314Z,95551.45
2017-10-30T06:10:08.776Z,95520.94
2017-10-30T06:11:46.452Z,95502.38
2017-10-30T06:13:22.886Z,95505.81
2017-10-30T06:15:01.109Z,95567.91
2017-10-30T06:16:39.330Z,95609.48
2017-10-30T06:18:16.137Z,95602.15
2017-10-30T06:19:52.619Z,95606.99
2017-10-30T06:21:29.330Z,95668.20
2017-10-30T06:23:05.906Z,95699.77
2017-10-30T06:24:42.309Z,95722.69
2017-10-30T06:26:19.839Z,95758.52
2017-10-30T06:27:57.961Z,95786.13
2017-10-30T06:29:34.321Z,95754.12
2017-10-30T06:31:11.344Z,95752.73
2017-10-30T06:32:47.764Z,95674.64
2017-10-30T06:34:24.425Z,95597.72
2017-10-30T06:36:01.663Z,95542.59
2017-10-30T06:37:38.226Z,95505.39
2017-10-30T06:39:14.884Z,95516.16
2017-10-30T06:40:51.761Z,95548.58
2017-10-30T06:42:28.312Z,95552.42
2017-10-30T06:44:05.109Z,95599.11
2017-10-30T06:45:42.845Z,95598.17
2017-10-30T06:47:21.450Z,95615.48
2017-10-30T06:48:58.105Z,95656.61
2017-10-30T06:50:34.726Z,95627.57
2017-10-30T06:52:11.200Z,95695.80
2017-10-30T06:53:47.991Z,95704.50
2017-10-30T06:55:24.389Z,95747.19
2017-10-30T06:57:00.781Z,95763.22
2017-10-30T06:58:37.197Z,95809.17
2017-10-30T07:00:16.303Z,95816.89
2017-10-30T07:01:54.087Z,95854.37
2017-10-30T07:03:30.625Z,95878.69
2017-10-30T07:05:07.348Z,95838.48
2017-10-30T07:06:44.304Z,95806.83
2017-10-30T07:08:20.783Z,95756.22
2017-10-30T07:09:59.557Z,95778.78
2017-10-30T07:11:36.709Z,95777.03
2017-10-30T07:13:15.124Z,95786.91
2017-10-30T07:14:51.692Z,95808.99
2017-10-30T07:16:30.214Z,95839.66
2017-10-30T07:18:07.631Z,95891.25
2017-10-30T07:19:44.626Z,95881.19
2017-10-30T07:21:22.088Z,95838.75
2017-10-30T07:22:58.640Z,95765.31
2017-10-30T07:24:35.719Z,95743.70
2017-10-30T07:26:13.395Z,95767.19
2017-10-30T07:27:49.832Z,95779.14
2017-10-30T07:29:26.627Z,95811.97
2017-10-30T07:31:03.247Z,95807.25
2017-10-30T07:32:40.407Z,95791.16
2017-10-30T07:34:18.296Z,95832.83
2017-10-30T07:35:55.515Z,95846.23
2017-10-30T07:37:31.904Z,95862.66
2017-10-30T07:39:08.705Z,95825.89
2017-10-30T07:40:46.008Z,95809.54
2017-10-30T07:42:22.753Z,95839.30
2017-10-30T07:44:00.278Z,95876.94
2017-10-30T07:45:37.735Z,95937.19
2017-10-30T07:47:14.399Z,95929.23
2017-10-30T07:48:52.226Z,95941.41
2017-10-30T07:50:29.319Z,95886.48
2017-10-30T07:52:15.409Z,95811.16
2017-10-30T07:53:52.456Z,95799.53
2017-10-30T07:55:29.614Z,95820.77
2017-10-30T07:57:06.601Z,95836.38
2017-10-30T07:58:44.065Z,95874.22
2017-10-30T08:00:22.333Z,95939.30
2017-10-30T08:01:59.300Z,95996.26
2017-10-30T08:03:35.955Z,95974.73
2017-10-30T08:05:12.770Z,95981.51
2017-10-30T08:06:49.334Z,96039.18
2017-10-30T08:08:26.465Z,96047.47
2017-10-30T08:10:04.392Z,96023.97
2017-10-30T08:11:41.761Z,96031.75
2017-10-30T08:13:18.798Z,96035.25
2017-10-30T08:14:56.127Z,95975.15
2017-10-30T08:16:33.022Z,95941.47
2017-10-30T08:18:09.898Z,95933.21
2017-10-30T08:19:46.391Z,95960.86
2017-10-30T08:21:23.807Z,96004.58
2017-10-30T08:23:02.102Z,95957.90
2017-10-30T08:24:39.502Z,95882.66
2017-10-30T08:26:17.585Z,95850.15
2017-10-30T08:27:54.892Z,95863.65
2017-10-30T08:29:32.236Z,95828.55
2017-10-30T08:31:09.434Z,95755.02
2017-10-30T08:32:46.362Z,95770.63
2017-10-30T08:34:24.208Z,95710.10
2017-10-30T08:36:01.724Z,95695.08
2017-10-30T08:37:39.918Z,95682.44
2017-10-30T08:39:17.978Z,95721.78
2017-10-30T08:40:55.085Z,95780.17
2017-10-30T08:42:32.842Z,95855.88
2017-10-30T08:44:10.037Z,95937.13
2017-10-30T08:45:48.497Z,95998.09
2017-10-30T08:47:26.172Z,96065.64
2017-10-30T08:49:05.770Z,96131.88
2017-10-30T08:50:42.977Z,96170.52
2017-10-30T08:52:22.297Z,96207.83
2017-10-30T08:53:59.016Z,96180.89
2017-10-30T08:55:35.744Z,96216.86
2017-10-30T08:57:13.231Z,96268.09
2017-10-30T08:58:50.459Z,96286.19
2017-10-30T09:00:31.764Z,96289.27
2017-10-30T09:02:09.015Z,96212.58
2017-10-30T09:03:46.722Z,96163.98
2017-10-30T09:05:24.477Z,96188.72
2017-10-30T09:07:02.053Z,96250.35
2017-10-30T09:08:39.372Z,96260.30
2017-10-30T09:10:20.102Z,96296.27
2017-10-30T09:11:56.880Z,96323.41
2017-10-30T09:13:34.202Z,96360.79
2017-10-30T09:15:10.907Z,96376.78
2017-10-30T09:16:48.242Z,96342.48
2017-10-30T09:18:25.323Z,96328.24
2017-10-30T09:20:02.182Z,96326.86
2017-10-30T09:21:38.816Z,96390.80
2017-10-30T09:23:16.513Z,96380.34
2017-10-30T09:24:53.715Z,96432.16
2017-10-30T09:26:30.658Z,96436.40
2017-10-30T09:28:07.432Z,96345.98
2017-10-30T09:29:44.255Z,96283.53
2017-10-30T09:31:21.115Z,96278.12
2017-10-30T09:32:58.065Z,96261.98
2017-10-30T09:34:34.701Z,96274.61
2017-10-30T09:36:11.906Z,96260.23
2017-10-30T09:37:48.593Z,96299.72
2017-10-30T09:39:25.283Z,96357.77
2017-10-30T09:41:02.379Z,96429.56
2017-10-30T09:42:40.128Z,96462.50
2017-10-30T09:44:16.878Z,96450.28
2017-10-30T09:45:53.998Z,96405.53
2017-10-30T09:47:32.436Z,96461.22
2017-10-30T09:49:10.119Z,96495.46
2017-10-30T09:50:49.088Z,96527.56
2017-10-30T09:52:26.219Z,96448.58
2017-10-30T09:54:03.417Z,96423.45
2017-10-30T09:55:41.516Z,96421.70
2017-10-30T09:57:19.247Z,96482.85
2017-10-30T09:58:56.061Z,96558.42
2017-10-30T10:00:34.117Z,96598.41
2017-10-30T10:02:11.964Z,96653.95
2017-10-30T10:03:49.518Z,96672.30
2017-10-30T10:05:26.288Z,96667.09
2017-10-30T10:07:03.813Z,96575.31
2017-10-30T10:08:42.321Z,96476.80
2017-10-30T10:10:19.831Z,96449.00
2017-10-30T10:11:56.633Z,96463.34
2017-10-30T10:13:33.230Z,96407.40
2017-10-30T10:15:10.432Z,96453.78
2017-10-30T10:16:47.449Z,96485.45
2017-10-30T10:18:25.117Z,96518.91
2017-10-30T10:20:01.781Z,96493.65
2017-10-30T10:21:39.044Z,96498.48
2017-10-30T10:23:15.735Z,96452.88
2017-10-30T10:24:52.542Z,96455.66
2017-10-30T10:26:30.088Z,96445.08
2017-10-30T10:28:07.098Z,96433.01
2017-10-30T10:29:44.489Z,96412.60
2017-10-30T10:31:21.886Z,96429.92
2017-10-30T10:32:58.697Z,96434.34
2017-10-30T10:34:35.727Z,96462.07
2017-10-30T10:36:13.078Z,96497.64
2017-10-30T10:37:49.771Z,96560.55
2017-10-30T10:39:27.046Z,96620.11
2017-10-30T10:41:04.382Z,96638.42
2017-10-30T10:42:41.162Z,96626.22
2017-10-30T10:44:17.754Z,96574.41
2017-10-30T10:45:54.804Z,96567.87
2017-10-30T10:47:32.094Z,96553.67
2017-10-30T10:49:08.908Z,96519.33
2017-10-30T10:50:46.374Z,96560.17
2017-10-30T10:52:22.818Z,96640.42
2017-10-30T10:54:00.654Z,96679.17
2017-10-30T10:55:37.291Z,96650.50
2017-10-30T10:57:14.343Z,96597.08
2017-10-30T10:58:51.713Z,96574.31
2017-10-30T11:00:29.815Z,96600.50
2017-10-30T11:02:07.742Z,96598.20
2017-10-30T11:03:44.168Z,96591.27
2017-10-30T11:05:20.870Z,96586.66
2017-10-30T11:06:58.068Z,96610.00
2017-10-30T11:08:35.033Z,96609.16
2017-10-30T11:10:12.637Z,96627.46
2017-10-30T11:11:49.478Z,96672.78
2017-10-30T11:13:28.234Z,96726.61
2017-10-30T11:15:05.607Z,96818.27
2017-10-30T11:16:43.284Z,96803.14
2017-10-30T11:18:21.586Z,96771.78
2017-10-30T11:19:59.613Z,96766.57
2017-10-30T11:21:36.831Z,96760.11
2017-10-30T11:23:13.539Z,96780.03
2017-10-30T11:24:50.513Z,96789.57
2017-10-30T11:26:27.235Z,96869.31
2017-10-30T11:28:04.443Z,96936.72
2017-10-30T11:29:41.633Z,96908.91
2017-10-30T11:31:19.068Z,96868.46
2017-10-30T11:32:56.041Z,96837.94
2017-10-30T11:34:33.149Z,96822.75
2017-10-30T11:36:09.980Z,96768.75
2017-10-30T11:37:47.360Z,96790.05
2017-10-30T11:39:30.116Z,96847.52
2017-10-30T11:41:06.777Z,96788.87
2017-10-30T11:42:43.663Z,96789.69
2017-10-30T11:44:21.683Z,96789.14
2017-10-30T11:45:59.392Z,96813.69
2017-10-30T11:47:36.042Z,96844.48
2017-10-30T11:49:12.796Z,96898.94
2017-10-30T11:50:50.244Z,96924.19
2017-10-30T11:52:26.730Z,96887.53
2017-10-30T11:54:03.244Z,96854.97
2017-10-30T11:55:39.710Z,96721.76
2017-10-30T11:57:17.209Z,96644.48
2017-10-30T11:58:54.014Z,96607.39
2017-10-30T12:00:31.479Z,96509.71
2017-10-30T12:02:08.074Z,96521.94
2017-10-30T12:05:50.665Z,96640.48
2017-10-30T12:07:27.622Z,96671.30
2017-10-30T12:09:04.608Z,96704.41
2017-10-30T12:10:41.908Z,96789.30
2017-10-30T12:12:18.837Z,96843.95
2017-10-30T12:13:55.471Z,96885.30
2017-10-30T12:15:32.886Z,96962.90
2017-10-30T12:17:09.555Z,97031.31
2017-10-30T12:18:48.332Z,97099.33
2017-10-30T12:20:24.806Z,97126.27
2017-10-30T12:22:02.187Z,97101.34
2017-10-30T12:23:38.901Z,97101.40
2017-10-30T12:25:15.733Z,97086.67
2017-10-30T12:26:53.620Z,97100.13
2017-10-30T12:28:30.438Z,97137.73
2017-10-30T12:30:07.249Z,97179.89
2017-10-30T12:31:44.380Z,97186.80
2017-10-30T12:33:22.248Z,97179.05
2017-10-30T12:34:59.437Z,97163.03
2017-10-30T12:36:36.975Z,97063.52
2017-10-30T12:38:14.902Z,97057.98
2017-10-30T12:39:51.465Z,97051.31
2017-10-30T12:41:28.346Z,97044.84
2017-10-30T12:43:05.447Z,97083.16
2017-10-30T12:44:44.981Z,97095.33
2017-10-30T12:46:23.456Z,97012.22
2017-10-30T12:48:01.107Z,96964.17
2017-10-30T12:49:38.506Z,96952.83
2017-10-30T12:51:16.430Z,96963.80
2017-10-30T12:52:53.724Z,96984.22
2017-10-30T12:54:30.743Z,96947.55
2017-10-30T12:56:08.118Z,96962.73
2017-10-30T12:57:45.838Z,97018.18
2017-10-30T12:59:22.592Z,96948.41
2017-10-30T13:01:00.054Z,96869.20
2017-10-30T13:02:36.608Z,96869.63
2017-10-30T13:04:13.572Z,96888.70
2017-10-30T13:05:50.165Z,96954.95
2017-10-30T13:07:26.770Z,97002.41
2017-10-30T13:10:35.033Z,97057.22
2017-10-30T13:12:11.616Z,97022.52
2017-10-30T13:13:48.061Z,96961.82
2017-10-30T13:15:26.698Z,96945.69
2017-10-30T13:17:05.690Z,96883.97
2017-10-30T13:18:42.232Z,96861.31
2017-10-30T13:20:22.096Z,96827.34
2017-10-30T13:21:59.668Z,96859.62
2017-10-30T13:23:36.769Z,96933.52
2017-10-30T13:25:13.699Z,97033.44
2017-10-30T13:26:50.092Z,97001.02
2017-10-30T13:28:26.557Z,96917.05
2017-10-30T13:30:05.194Z,96909.96
2017-10-30T13:31:42.725Z,96942.31
2017-10-30T13:33:20.039Z,97010.23
2017-10-30T13:34:56.710Z,97065.98
2017-10-30T13:36:33.664Z,97066.78
2017-10-30T13:38:10.226Z,97013.75
2017-10-30T13:39:47.123Z,96949.14
2017-10-30T13:41:25.782Z,96931.77
2017-10-30T13:43:02.673Z,96963.21
2017-10-30T13:44:39.133Z,97009.81
2017-10-30T13:46:16.017Z,97050.77
2017-10-30T13:47:53.619Z,97080.71
2017-10-30T13:49:30.176Z,97122.16
2017-10-30T13:51:06.840Z,97109.04
2017-10-30T13:52:43.513Z,97072.91
2017-10-30T13:54:21.629Z,97015.73
2017-10-30T13:56:00.339Z,97017.98
2017-10-30T13:57:37.128Z,97018.41
2017-10-30T13:59:13.613Z,96908.63
2017-10-30T14:00:50.383Z,96890.31
2017-10-30T14:02:27.075Z,96923.14
2017-10-30T14:04:04.974Z,96949.52
2017-10-30T14:05:41.701Z,96990.52
2017-10-30T14:07:19.312Z,96949.52
2017-10-30T14:08:57.117Z,96948.12
2017-10-30T14:10:34.000Z,96983.20
2017-10-30T14:12:10.511Z,96970.89
2017-10-30T14:13:46.966Z,96939.02
2017-10-30T14:15:28.476Z,96915.66
2017-10-30T14:17:05.758Z,96905.11
2017-10-30T14:18:42.424Z,96909.76
2017-10-30T14:20:20.039Z,96850.77
2017-10-30T14:21:56.797Z,96806.66
2017-10-30T14:23:33.220Z,96857.20
2017-10-30T14:25:11.384Z,96955.50
2017-10-30T14:26:49.079Z,97054.55
2017-10-30T14:28:26.279Z,97149.92
2017-10-30T14:30:03.432Z,97179.05
2017-10-30T14:31:40.392Z,97207.45
2017-10-30T14:33:17.213Z,97198.70
2017-10-30T14:34:55.643Z,97125.84
2017-10-30T14:36:33.246Z,97098.84
2017-10-30T14:38:10.247Z,97117.62
2017-10-30T14:39:46.901Z,97088.02
2017-10-30T14:41:25.188Z,97096.66
2017-10-30T14:43:03.493Z,97102.73
2017-10-30T14:44:40.271Z,97082.67
2017-10-30T14:46:17.021Z,97093.94
2017-10-30T14:47:55.160Z,97123.18
2017-10-30T14:49:32.205Z,97103.22
2017-10-30T14:51:09.554Z,97112.39
2017-10-30T14:52:46.392Z,97146.77
2017-10-30T14:54:23.415Z,97170.42
2017-10-30T14:56:00.884Z,97202.97
2017-10-30T14:57:37.796Z,97151.56
2017-10-30T14:59:14.501Z,97158.55
2017-10-30T15:00:51.991Z,97147.73
2017-10-30T15:02:29.786Z,97121.84
2017-10-30T15:04:06.258Z,97073.50
2017-10-30T15:05:43.180Z,97073.94
2017-10-30T15:07:21.173Z,97080.12
2017-10-30T15:08:58.935Z,97019.52
2017-10-30T15:10:35.565Z,96934.91
2017-10-30T15:12:12.174Z,96901.91
2017-10-30T15:13:49.271Z,96897.54
2017-10-30T15:15:28.804Z,96902.33
2017-10-30T15:17:06.740Z,96878.69
2017-10-30T15:18:43.818Z,96893.97
2017-10-30T15:20:20.616Z,96947.16
2017-10-30T15:21:57.517Z,96957.20
2017-10-30T15:23:34.354Z,96906.19
2017-10-30T15:25:11.142Z,96876.98
2017-10-30T15:26:48.054Z,96901.00
2017-10-30T15:28:25.129Z,96937.46
2017-10-30T15:30:02.485Z,96947.50
2017-10-30T15:31:39.272Z,96951.86
2017-10-30T15:33:16.389Z,96993.67
2017-10-30T15:34:52.925Z,97009.33
2017-10-30T15:36:29.629Z,97056.85
2017-10-30T15:38:07.953Z,97000.59
2017-10-30T15:39:44.710Z,96962.30
2017-10-30T15:41:22.422Z,96979.63
2017-10-30T15:43:00.881Z,97007.94
2017-10-30T15:44:40.605Z,96992.76
2017-10-30T15:46:18.826Z,96977.02
2017-10-30T15:47:55.902Z,96896.58
2017-10-30T15:49:32.446Z,96903.83
2017-10-30T15:51:09.892Z,96960.06
2017-10-30T15:52:46.649Z,97003.57
2017-10-30T15:54:24.502Z,97045.81
2017-10-30T15:56:02.194Z,97085.09
2017-10-30T15:57:38.943Z,97126.48
2017-10-30T15:59:15.780Z,97106.86
2017-10-30T16:00:53.352Z,97089.29
2017-10-30T16:02:29.741Z,97099.48
2017-10-30T16:04:06.198Z,97110.80
2017-10-30T16:05:42.714Z,97071.52
2017-10-30T16:07:21.344Z,97026.55
2017-10-30T16:08:58.064Z,97038.35
2017-10-30T16:10:34.498Z,97000.91
2017-10-30T16:12:12.996Z,96969.93
2017-10-30T16:13:50.202Z,96995.26
2017-10-30T16:15:29.608Z,96999.57
2017-10-30T16:17:06.383Z,97034.55
2017-10-30T16:18:43.192Z,97029.61
2017-10-30T16:20:19.777Z,97031.09
2017-10-30T16:21:56.258Z,97010.89
2017-10-30T16:23:33.850Z,97032.28
2017-10-30T16:25:17.326Z,97046.19
2017-10-30T16:26:54.469Z,97096.81
2017-10-30T16:28:32.376Z,97122.95
2017-10-30T16:30:10.199Z,97166.94
2017-10-30T16:31:48.663Z,97159.41
2017-10-30T16:33:26.026Z,97172.55
2017-10-30T16:35:03.464Z,97196.55
2017-10-30T16:36:40.319Z,97216.95
2017-10-30T16:38:17.267Z,97211.66
2017-10-30T16:39:54.035Z,97228.37
2017-10-30T16:41:32.277Z,97268.97
2017-10-30T16:43:09.851Z,97323.78
2017-10-30T16:44:50.762Z,97365.39
2017-10-30T16:46:29.179Z,97365.77
2017-10-30T16:48:13.472Z,97378.02
2017-10-30T16:49:50.277Z,97373.67
2017-10-30T16:51:28.083Z,97376.45
2017-10-30T16:53:11.254Z,97402.07
2017-10-30T16:54:48.110Z,97416.01
2017-10-30T16:56:25.807Z,97305.03
2017-10-30T16:58:02.925Z,97271.58
2017-10-30T16:59:39.656Z,97233.51
2017-10-30T17:01:16.732Z,97227.46
2017-10-30T17:02:53.169Z,97220.05
2017-10-30T17:04:30.993Z,97221.75
2017-10-30T17:06:07.692Z,97280.19
2017-10-30T17:07:44.813Z,97286.38
2017-10-30T17:09:23.660Z,97305.51
2017-10-30T17:11:02.052Z,97285.90
2017-10-30T17:12:39.559Z,97234.36
2017-10-30T17:14:20.894Z,97200.28
2017-10-30T17:15:57.682Z,97147.14
2017-10-30T17:17:35.482Z,97078.31
2017-10-30T17:19:11.901Z,97063.09
2017-10-30T17:20:50.414Z,97033.39
2017-10-30T17:22:29.990Z,97047.38
2017-10-30T17:24:15.535Z,97064.75
2017-10-30T17:25:52.005Z,97072.60
2017-10-30T17:27:28.739Z,97071.27
2017-10-30T17:29:05.222Z,97042.47
2017-10-30T17:30:42.194Z,97033.88
2017-10-30T17:32:18.885Z,97044.66
2017-10-30T17:33:55.406Z,97058.67
2017-10-30T17:35:33.900Z,97069.56
2017-10-30T17:37:10.985Z,97049.02
2017-10-30T17:38:47.462Z,97080.80
2017-10-30T17:40:27.921Z,97122.70
2017-10-30T17:42:04.426Z,97049.13
2017-10-30T17:43:42.075Z,97062.62
2017-10-30T17:45:20.192Z,97041.70
2017-10-30T17:46:57.176Z,97008.42
2017-10-30T17:48:34.631Z,96985.88
2017-10-30T17:50:11.900Z,97009.02
2017-10-30T17:51:48.583Z,97015.52
2017-10-30T17:53:25.316Z,97030.78
2017-10-30T17:55:07.854Z,97004.53
2017-10-30T17:56:46.560Z,96971.00
2017-10-30T17:58:25.983Z,96937.52
2017-10-30T18:00:03.700Z,96916.50
2017-10-30T18:01:41.191Z,96896.09
2017-10-30T18:03:19.898Z,96854.33
2017-10-30T18:04:57.187Z,96846.48
2017-10-30T18:06:35.362Z,96877.50
2017-10-30T18:08:14.966Z,96903.89
2017-10-30T18:09:52.877Z,96913.16
2017-10-30T18:11:30.149Z,96984.59
2017-10-30T18:13:09.173Z,96962.30
2017-10-30T18:14:45.794Z,96969.13
2017-10-30T18:16:25.094Z,96938.59
2017-10-30T18:18:02.645Z,96939.10
2017-10-30T18:19:39.630Z,96919.08
2017-10-30T18:21:16.337Z,96863.86
2017-10-30T18:22:53.341Z,96850.42
2017-10-30T18:24:30.125Z,96859.98
2017-10-30T18:26:06.844Z,96842.48
2017-10-30T18:27:43.791Z,96858.22
2017-10-30T18:29:20.702Z,96827.21
2017-10-30T18:30:58.398Z,96806.21
2017-10-30T18:32:35.644Z,96756.75
2017-10-30T18:34:12.414Z,96740.66
2017-10-30T18:35:49.354Z,96711.97
2017-10-30T18:37:26.585Z,96698.80
2017-10-30T18:39:03.269Z,96706.37
2017-10-30T18:40:40.260Z,96675.30
2017-10-30T18:42:18.150Z,96603.69
2017-10-30T18:43:55.374Z,96585.01
2017-10-30T18:45:32.506Z,96613.16
2017-10-30T18:47:09.185Z,96621.88
2017-10-30T18:48:46.427Z,96630.97
2017-10-30T18:50:23.742Z,96602.36
2017-10-30T18:52:02.567Z,96590.61
2017-10-30T18:53:49.242Z,96544.06
2017-10-30T18:55:26.198Z,96537.62
2017-10-30T18:57:04.978Z,96528.48
2017-10-30T18:58:41.706Z,96529.75
2017-10-30T19:00:24.681Z,96553.20
2017-10-30T19:02:03.263Z,96557.56
2017-10-30T19:03:41.539Z,96548.84
2017-10-30T19:05:19.338Z,96588.46
2017-10-30T19:06:56.588Z,96601.93
2017-10-30T19:08:33.890Z,96576.23
2017-10-30T19:10:12.176Z,96586.61
2017-10-30T19:11:50.395Z,96596.61
2017-10-30T19:13:29.970Z,96547.57
2017-10-30T19:15:07.338Z,96599.21